createdAt,value
2023-10-21T00:02:24.882Z,13.00
2023-10-21T00:04:53.134Z,17.50
2023-10-21T00:07:21.330Z,14.10
2023-10-21T00:09:49.475Z,17.50
2023-10-21T00:12:17.702Z,13.50
2023-10-21T00:14:46.080Z,11.30
2023-10-21T00:17:14.230Z,19.70
2023-10-21T00:19:42.538Z,13.20
2023-10-21T00:22:11.476Z,11.80
2023-10-21T00:24:39.820Z,9.40
2023-10-21T00:27:08.343Z,16.70
2023-10-21T00:29:36.858Z,11.60
2023-10-21T00:32:06.054Z,14.40
2023-10-21T00:34:39.473Z,11.50
2023-10-21T00:37:09.291Z,10.80
2023-10-21T00:39:38.533Z,9.60
2023-10-21T00:42:07.034Z,10.10
2023-10-21T00:44:35.389Z,9.70
2023-10-21T00:47:04.181Z,14.20
2023-10-21T00:49:33.666Z,10.90
2023-10-21T00:52:04.694Z,12.80
2023-10-21T00:54:33.448Z,13.90
2023-10-21T00:57:02.072Z,14.50
2023-10-21T00:59:30.333Z,12.40
2023-10-21T01:01:58.737Z,12.40
2023-10-21T01:04:27.580Z,15.20
2023-10-21T01:06:56.890Z,17.80
2023-10-21T01:09:27.753Z,9.80
2023-10-21T01:11:56.424Z,14.40
2023-10-21T01:14:25.447Z,12.90
2023-10-21T01:16:53.811Z,11.40
2023-10-21T01:19:23.359Z,12.70
2023-10-21T01:21:51.593Z,10.70
2023-10-21T01:24:19.887Z,15.00
2023-10-21T01:26:48.247Z,12.40
2023-10-21T01:29:16.655Z,14.00
2023-10-21T01:31:45.370Z,13.40
2023-10-21T01:34:14.328Z,15.70
2023-10-21T01:36:42.930Z,14.50
2023-10-21T01:39:11.892Z,14.40
2023-10-21T01:41:40.444Z,12.90
2023-10-21T01:44:11.158Z,14.40
2023-10-21T01:46:42.251Z,14.00
2023-10-21T01:49:13.574Z,17.60
2023-10-21T01:51:45.291Z,12.90
2023-10-21T01:54:17.303Z,15.90
2023-10-21T01:56:48.751Z,10.10
2023-10-21T01:59:20.240Z,16.30
2023-10-21T02:01:51.268Z,15.30
2023-10-21T02:04:22.160Z,15.60
2023-10-21T02:06:52.318Z,12.30
2023-10-21T02:09:24.270Z,11.80
2023-10-21T02:11:59.293Z,12.70
2023-10-21T02:14:31.246Z,14.30
2023-10-21T02:17:02.773Z,15.30
2023-10-21T02:19:34.471Z,13.30
2023-10-21T02:22:07.316Z,10.40
2023-10-21T02:24:39.176Z,15.30
2023-10-21T02:27:14.336Z,9.00
2023-10-21T02:29:47.239Z,13.80
2023-10-21T02:32:19.208Z,12.60
2023-10-21T02:34:50.593Z,13.20
2023-10-21T02:37:21.704Z,12.20
2023-10-21T02:39:52.283Z,12.60
2023-10-21T02:42:24.279Z,12.10
2023-10-21T02:52:30.261Z,14.30
2023-10-21T02:54:58.531Z,11.20
2023-10-21T02:57:27.051Z,15.10
2023-10-21T02:59:56.043Z,16.40
2023-10-21T03:02:24.233Z,10.30
2023-10-21T03:04:52.982Z,14.70
2023-10-21T03:07:21.257Z,11.60
2023-10-21T03:09:49.843Z,14.20
2023-10-21T03:12:18.189Z,13.20
2023-10-21T03:14:46.999Z,10.60
2023-10-21T03:17:15.653Z,12.60
2023-10-21T03:19:44.490Z,13.20
2023-10-21T03:22:12.777Z,13.40
2023-10-21T03:24:41.251Z,11.90
2023-10-21T03:27:09.820Z,11.60
2023-10-21T03:29:38.084Z,10.90
2023-10-21T03:32:07.773Z,13.80
2023-10-21T03:34:36.302Z,14.30
2023-10-21T03:37:05.502Z,14.00
2023-10-21T03:39:34.077Z,13.60
2023-10-21T03:42:02.420Z,13.00
2023-10-21T03:44:30.668Z,9.80
2023-10-21T03:46:59.041Z,13.50
2023-10-21T03:49:27.537Z,15.20
2023-10-21T03:51:56.290Z,10.50
2023-10-21T03:54:24.591Z,13.80
2023-10-21T03:56:53.086Z,12.50
2023-10-21T03:59:21.354Z,11.80
2023-10-21T04:01:49.844Z,11.40
2023-10-21T04:04:18.453Z,14.40
2023-10-21T04:06:47.046Z,12.00
2023-10-21T04:09:15.799Z,15.40
2023-10-21T04:11:44.158Z,9.20
2023-10-21T04:14:12.330Z,11.80
2023-10-21T04:16:45.853Z,11.40
2023-10-21T04:19:14.721Z,11.20
2023-10-21T04:21:43.043Z,11.30
2023-10-21T04:24:11.104Z,10.50
2023-10-21T04:26:39.659Z,13.50
2023-10-21T04:29:08.180Z,11.80
2023-10-21T04:31:36.940Z,13.70
2023-10-21T04:34:05.513Z,12.70
2023-10-21T04:36:33.677Z,14.80
2023-10-21T04:39:01.854Z,11.40
2023-10-21T04:41:30.576Z,12.40
2023-10-21T04:43:58.929Z,13.10
2023-10-21T04:46:27.290Z,14.10
2023-10-21T04:48:56.096Z,15.50
2023-10-21T04:51:25.066Z,11.00
2023-10-21T04:53:53.345Z,17.80
2023-10-21T04:56:22.076Z,11.50
2023-10-21T04:58:50.346Z,14.50
2023-10-21T05:01:18.789Z,12.60
2023-10-21T05:03:47.325Z,15.90
2023-10-21T05:06:15.745Z,12.30
2023-10-21T05:08:44.282Z,13.80
2023-10-21T05:11:12.620Z,12.00
2023-10-21T05:13:40.989Z,10.90
2023-10-21T05:16:09.427Z,13.80
2023-10-21T05:18:37.517Z,13.80
2023-10-21T05:21:09.012Z,10.30
2023-10-21T05:23:37.339Z,10.90
2023-10-21T05:26:05.715Z,16.10
2023-10-21T05:28:34.135Z,15.10
2023-10-21T05:31:03.446Z,11.40
2023-10-21T05:33:31.697Z,13.70
2023-10-21T05:36:01.622Z,14.50
2023-10-21T05:38:30.004Z,14.20
2023-10-21T05:41:00.925Z,13.10
2023-10-21T05:43:29.286Z,11.60
2023-10-21T05:45:58.022Z,13.30
2023-10-21T05:48:26.506Z,11.70
2023-10-21T05:50:55.090Z,10.90
2023-10-21T05:53:23.530Z,15.20
2023-10-21T05:55:51.804Z,11.90
2023-10-21T05:58:20.705Z,11.70
2023-10-21T06:00:48.950Z,9.90
2023-10-21T06:03:17.357Z,10.70
2023-10-21T06:05:45.941Z,11.00
2023-10-21T06:08:14.355Z,12.80
2023-10-21T06:10:45.668Z,13.70
2023-10-21T06:13:14.044Z,11.60
2023-10-21T06:15:42.223Z,13.90
2023-10-21T06:18:10.567Z,15.50
2023-10-21T06:20:38.901Z,15.50
2023-10-21T06:23:07.206Z,13.40
2023-10-21T06:25:35.656Z,17.60
2023-10-21T06:28:04.643Z,14.90
2023-10-21T06:30:33.063Z,12.20
2023-10-21T06:33:01.506Z,14.40
2023-10-21T06:35:30.512Z,11.10
2023-10-21T06:37:58.786Z,14.10
2023-10-21T06:40:41.118Z,13.80
2023-10-21T06:43:15.216Z,14.50
2023-10-21T06:45:46.724Z,12.50
2023-10-21T06:48:15.231Z,11.20
2023-10-21T06:50:43.757Z,11.40
2023-10-21T06:53:12.213Z,12.50
2023-10-21T06:55:43.089Z,12.40
2023-10-21T06:58:12.885Z,11.10
2023-10-21T07:00:41.265Z,12.30
2023-10-21T07:03:09.944Z,11.20
2023-10-21T07:05:38.300Z,14.70
2023-10-21T07:08:07.396Z,12.80
2023-10-21T07:10:35.804Z,14.10
2023-10-21T07:13:04.789Z,12.00
2023-10-21T07:15:33.107Z,12.80
2023-10-21T07:18:02.026Z,15.30
2023-10-21T07:20:30.749Z,14.20
2023-10-21T07:22:59.244Z,11.40
2023-10-21T07:25:27.918Z,11.90
2023-10-21T07:27:56.080Z,14.60
2023-10-21T07:30:25.959Z,13.30
2023-10-21T07:32:54.774Z,12.50
2023-10-21T07:35:23.583Z,13.80
2023-10-21T07:37:52.202Z,10.90
2023-10-21T07:40:21.370Z,12.30
2023-10-21T07:42:50.944Z,13.90
2023-10-21T07:45:19.170Z,16.10
2023-10-21T07:47:47.591Z,12.50
2023-10-21T07:50:16.102Z,15.10
2023-10-21T07:52:44.667Z,9.00
2023-10-21T07:55:15.865Z,16.80
2023-10-21T07:57:44.020Z,15.80
2023-10-21T08:00:15.186Z,13.80
2023-10-21T08:02:44.731Z,13.90
2023-10-21T08:05:12.929Z,10.40
2023-10-21T08:07:41.226Z,11.60
2023-10-21T08:10:11.248Z,13.20
2023-10-21T08:12:40.508Z,12.80
2023-10-21T08:15:09.905Z,11.60
2023-10-21T08:17:38.703Z,9.90
2023-10-21T08:20:08.892Z,13.30
2023-10-21T08:22:37.024Z,14.30
2023-10-21T08:25:07.887Z,12.10
2023-10-21T08:27:39.876Z,12.40
2023-10-21T08:30:12.027Z,12.60
2023-10-21T08:32:40.752Z,14.00
2023-10-21T08:35:09.165Z,15.00
2023-10-21T08:37:38.815Z,13.80
2023-10-21T08:40:11.459Z,18.10
2023-10-21T08:45:12.569Z,16.20
2023-10-21T08:47:44.135Z,12.50
2023-10-21T08:50:14.445Z,12.60
2023-10-21T08:52:43.973Z,19.10
2023-10-21T08:55:12.538Z,12.90
2023-10-21T08:57:40.676Z,14.00
2023-10-21T09:00:11.770Z,14.10
2023-10-21T09:02:40.381Z,13.10
2023-10-21T09:05:13.109Z,11.50
2023-10-21T09:07:46.887Z,13.90
2023-10-21T09:10:16.811Z,13.20
2023-10-21T09:12:44.945Z,11.90
2023-10-21T09:15:13.813Z,13.10
2023-10-21T09:17:53.824Z,14.70
2023-10-21T09:20:23.448Z,16.90
2023-10-21T09:22:53.507Z,18.10
2023-10-21T09:25:23.709Z,14.90
2023-10-21T09:27:57.180Z,11.40
2023-10-21T09:33:04.185Z,14.70
2023-10-21T09:35:33.471Z,18.20
2023-10-21T09:38:19.937Z,13.20
2023-10-21T09:40:49.946Z,14.30
2023-10-21T09:43:19.189Z,16.30
2023-10-21T09:45:51.274Z,17.70
2023-10-21T09:48:19.883Z,15.40
2023-10-21T09:50:52.479Z,15.60
2023-10-21T09:53:26.541Z,19.40
2023-10-21T09:55:57.225Z,15.70
2023-10-21T09:58:28.277Z,17.60
2023-10-21T10:00:57.520Z,14.10
2023-10-21T10:03:28.053Z,14.70
2023-10-21T10:05:56.723Z,15.60
2023-10-21T10:08:25.368Z,18.30
2023-10-21T10:10:56.776Z,14.10
2023-10-21T10:13:26.480Z,16.10
2023-10-21T10:15:56.595Z,16.50
2023-10-21T10:18:25.740Z,17.00
2023-10-21T10:20:54.652Z,17.50
2023-10-21T10:23:26.301Z,19.30
2023-10-21T10:25:58.705Z,15.00
2023-10-21T10:28:27.948Z,15.60
2023-10-21T10:30:58.695Z,19.10
2023-10-21T10:33:32.687Z,21.00
2023-10-21T10:36:14.559Z,16.00
2023-10-21T10:38:46.930Z,23.40
2023-10-21T10:41:20.523Z,16.00
2023-10-21T10:46:25.302Z,18.70
2023-10-21T10:48:54.039Z,18.00
2023-10-21T10:51:32.353Z,16.70
2023-10-21T10:54:02.141Z,16.30
2023-10-21T10:56:51.668Z,16.20
2023-10-21T10:59:20.339Z,18.20
2023-10-21T11:01:59.093Z,19.40
2023-10-21T11:04:27.560Z,16.50
2023-10-21T11:06:58.118Z,15.50
2023-10-21T11:09:32.431Z,20.80
2023-10-21T11:12:09.344Z,16.50
2023-10-21T11:14:39.859Z,18.30
2023-10-21T11:17:08.387Z,22.50
2023-10-21T11:19:37.134Z,17.90
2023-10-21T11:22:09.841Z,17.00
2023-10-21T11:24:39.043Z,24.40
2023-10-21T11:27:07.878Z,19.40
2023-10-21T11:29:38.980Z,25.90
2023-10-21T11:32:12.605Z,24.70
2023-10-21T11:34:46.070Z,23.60
2023-10-21T11:37:14.578Z,14.30
2023-10-21T11:39:43.113Z,28.50
2023-10-21T11:42:21.648Z,23.40
2023-10-21T11:45:01.873Z,22.80
2023-10-21T11:47:31.976Z,23.30
2023-10-21T11:50:00.538Z,22.10
2023-10-21T11:52:29.014Z,22.00
2023-10-21T11:55:11.239Z,26.80
2023-10-21T11:57:59.490Z,22.50
2023-10-21T12:00:47.170Z,26.10
2023-10-21T12:03:34.328Z,23.20
2023-10-21T12:06:08.729Z,22.40
2023-10-21T12:08:54.264Z,27.90
2023-10-21T12:11:28.458Z,23.20
2023-10-21T12:13:56.864Z,21.50
2023-10-21T12:16:31.079Z,20.80
2023-10-21T12:19:18.285Z,24.50
2023-10-21T12:22:02.121Z,22.40
2023-10-21T12:27:32.612Z,23.20
2023-10-21T12:30:20.240Z,20.50
2023-10-21T12:32:54.394Z,19.90
2023-10-21T12:35:37.945Z,24.00
2023-10-21T12:38:06.751Z,19.00
2023-10-21T12:40:37.741Z,21.80
2023-10-21T12:43:18.573Z,20.50
2023-10-21T12:45:48.138Z,16.40
2023-10-21T12:48:19.553Z,18.40
2023-10-21T12:50:52.431Z,21.40
2023-10-21T12:53:20.902Z,21.90
2023-10-21T12:55:49.285Z,19.50
2023-10-21T12:58:17.544Z,17.20
2023-10-21T13:00:46.339Z,18.20
2023-10-21T13:03:14.827Z,17.40
2023-10-21T13:13:22.883Z,23.60
2023-10-21T13:15:51.307Z,28.20
2023-10-21T13:18:20.824Z,29.10
2023-10-21T13:20:50.605Z,22.60
2023-10-21T13:23:19.216Z,21.80
2023-10-21T13:25:47.861Z,21.90
2023-10-21T13:28:16.140Z,25.30
2023-10-21T13:30:45.793Z,21.80
2023-10-21T13:33:14.649Z,27.80
2023-10-21T13:35:43.129Z,24.80
2023-10-21T13:38:12.938Z,20.30
2023-10-21T13:40:41.194Z,14.70
2023-10-21T13:43:11.410Z,17.40
2023-10-21T13:45:39.778Z,14.50
2023-10-21T13:48:12.830Z,15.50
2023-10-21T13:50:42.543Z,13.70
2023-10-21T13:53:15.917Z,16.80
2023-10-21T13:55:47.880Z,18.90
2023-10-21T13:58:22.086Z,17.70
2023-10-21T14:00:52.186Z,16.00
2023-10-21T14:03:23.374Z,16.40
2023-10-21T14:05:53.921Z,15.10
2023-10-21T14:08:26.806Z,15.70
2023-10-21T14:10:57.927Z,16.50
2023-10-21T14:13:29.713Z,17.70
2023-10-21T14:16:06.378Z,16.00
2023-10-21T14:18:34.989Z,16.30
2023-10-21T14:21:03.474Z,17.60
2023-10-21T14:23:32.025Z,16.90
2023-10-21T14:26:01.012Z,17.70
2023-10-21T14:28:30.136Z,16.10
2023-10-21T14:31:00.667Z,13.20
2023-10-21T14:33:34.001Z,17.60
2023-10-21T14:36:07.619Z,16.20
2023-10-21T14:38:36.430Z,16.40
2023-10-21T14:41:04.820Z,15.30
2023-10-21T14:43:33.409Z,19.60
2023-10-21T14:46:01.983Z,20.00
2023-10-21T14:48:30.498Z,21.50
2023-10-21T14:50:58.864Z,21.70
2023-10-21T14:53:27.569Z,17.90
2023-10-21T14:55:55.930Z,17.10
2023-10-21T14:58:25.396Z,14.50
2023-10-21T15:00:54.707Z,16.70
2023-10-21T15:03:24.557Z,15.70
2023-10-21T15:05:54.460Z,15.30
2023-10-21T15:08:25.342Z,15.50
2023-10-21T15:10:54.494Z,15.70
2023-10-21T15:13:29.027Z,15.80
2023-10-21T15:16:01.503Z,27.20
2023-10-21T15:18:31.947Z,18.20
2023-10-21T15:21:08.283Z,21.60
2023-10-21T15:23:38.584Z,20.60
2023-10-21T15:26:18.006Z,16.90
2023-10-21T15:28:46.662Z,20.50
2023-10-21T15:31:14.946Z,23.00
2023-10-21T15:33:43.336Z,19.50
2023-10-21T15:36:13.441Z,19.30
2023-10-21T15:38:41.951Z,17.60
2023-10-21T15:41:17.824Z,19.10
2023-10-21T15:43:46.564Z,26.90
2023-10-21T15:46:14.859Z,25.80
2023-10-21T15:48:43.486Z,25.20
2023-10-21T15:51:13.901Z,28.00
2023-10-21T15:53:46.005Z,27.40
2023-10-21T15:56:17.127Z,37.30
2023-10-21T15:58:45.886Z,25.50
2023-10-21T16:01:14.193Z,26.20
2023-10-21T16:03:42.870Z,20.30
2023-10-21T16:06:15.101Z,27.50
2023-10-21T16:08:44.905Z,28.70
2023-10-21T16:11:13.225Z,22.50
2023-10-21T16:13:41.621Z,22.10
2023-10-21T16:16:10.629Z,27.80
2023-10-21T16:18:38.975Z,24.80
2023-10-21T16:21:07.482Z,31.40
2023-10-21T16:23:35.982Z,34.60
2023-10-21T16:26:04.349Z,37.00
2023-10-21T16:28:33.222Z,44.30
2023-10-21T16:31:05.601Z,38.80
2023-10-21T16:33:36.748Z,36.60
2023-10-21T16:36:06.345Z,43.10
2023-10-21T16:38:36.556Z,36.40
2023-10-21T16:41:05.469Z,33.50
2023-10-21T16:43:36.705Z,44.40
2023-10-21T16:46:06.176Z,56.90
2023-10-21T16:48:34.805Z,51.50
2023-10-21T16:51:03.060Z,38.60
2023-10-21T16:53:32.681Z,24.90
2023-10-21T16:56:01.073Z,33.60
2023-10-21T16:58:29.394Z,25.20
2023-10-21T17:01:00.710Z,27.60
2023-10-21T17:03:29.332Z,21.10
2023-10-21T17:06:01.984Z,24.00
2023-10-21T17:08:35.806Z,22.20
2023-10-21T17:13:33.502Z,20.10
2023-10-21T17:16:02.644Z,20.40
2023-10-21T17:18:33.212Z,25.80
2023-10-21T17:21:03.623Z,22.60
2023-10-21T17:23:34.139Z,22.40
2023-10-21T17:26:02.699Z,23.60
2023-10-21T17:28:34.077Z,21.70
2023-10-21T17:31:02.454Z,20.30
2023-10-21T17:33:39.831Z,23.60
2023-10-21T17:36:19.648Z,23.30
2023-10-21T17:38:48.106Z,22.80
2023-10-21T17:41:16.352Z,21.00
2023-10-21T17:43:44.693Z,22.30
2023-10-21T17:46:13.240Z,23.50
2023-10-21T17:48:41.823Z,24.90
2023-10-21T17:51:10.288Z,35.90
2023-10-21T17:53:39.104Z,26.10
2023-10-21T17:56:07.558Z,28.40
2023-10-21T17:58:36.060Z,23.50
2023-10-21T18:01:05.818Z,21.60
2023-10-21T18:03:34.884Z,23.10
2023-10-21T18:06:03.662Z,25.10
2023-10-21T18:08:32.263Z,26.50
2023-10-21T18:11:00.715Z,25.90
2023-10-21T18:13:28.868Z,24.60
2023-10-21T18:15:58.591Z,25.30
2023-10-21T18:18:27.109Z,23.80
2023-10-21T18:20:55.466Z,23.00
2023-10-21T18:23:23.760Z,25.20
2023-10-21T18:26:03.365Z,24.90
2023-10-21T18:28:32.453Z,28.60
2023-10-21T18:31:02.249Z,31.20
2023-10-21T18:33:31.444Z,29.40
2023-10-21T18:35:59.857Z,26.90
2023-10-21T18:38:28.360Z,29.10
2023-10-21T18:40:57.001Z,28.60
2023-10-21T18:43:25.157Z,26.10
2023-10-21T18:45:58.053Z,25.00
2023-10-21T18:48:26.394Z,27.80
2023-10-21T18:51:01.649Z,26.80
2023-10-21T18:53:29.749Z,27.30
2023-10-21T18:55:58.099Z,24.50
2023-10-21T18:58:26.562Z,25.70
2023-10-21T19:00:59.080Z,18.20
2023-10-21T19:03:27.989Z,20.80
2023-10-21T19:05:56.351Z,19.40
2023-10-21T19:08:25.450Z,16.90
2023-10-21T19:10:54.035Z,19.20
2023-10-21T19:13:25.324Z,15.20
2023-10-21T19:15:53.594Z,20.30
2023-10-21T19:18:22.432Z,19.60
2023-10-21T19:20:50.619Z,23.20
2023-10-21T19:23:18.969Z,22.80
2023-10-21T19:25:49.900Z,21.70
2023-10-21T19:28:19.571Z,22.60
2023-10-21T19:30:48.094Z,23.30
2023-10-21T19:33:16.529Z,22.10
2023-10-21T19:35:54.667Z,30.60
2023-10-21T19:38:23.748Z,22.30
2023-10-21T19:40:54.294Z,23.50
2023-10-21T19:43:24.708Z,21.70
2023-10-21T19:45:52.968Z,17.90
2023-10-21T19:48:21.343Z,18.80
2023-10-21T19:50:49.610Z,20.10
2023-10-21T19:53:18.256Z,20.80
2023-10-21T19:56:00.005Z,21.80
2023-10-21T19:58:28.756Z,17.90
2023-10-21T20:01:07.818Z,17.50
2023-10-21T20:03:37.323Z,16.70
2023-10-21T20:06:06.713Z,16.40
2023-10-21T20:08:35.501Z,21.40
2023-10-21T20:11:09.027Z,19.60
2023-10-21T20:13:37.408Z,24.20
2023-10-21T20:16:10.818Z,19.20
2023-10-21T20:18:41.039Z,19.20
2023-10-21T20:21:09.447Z,14.90
2023-10-21T20:23:42.090Z,20.30
2023-10-21T20:26:16.167Z,19.00
2023-10-21T20:28:44.973Z,18.70
2023-10-21T20:31:13.825Z,17.10
2023-10-21T20:33:43.598Z,24.00
2023-10-21T20:36:12.166Z,25.20
2023-10-21T20:38:40.422Z,26.40
2023-10-21T20:41:10.011Z,27.20
2023-10-21T20:43:39.538Z,21.50
2023-10-21T20:46:09.164Z,22.90
2023-10-21T20:48:40.234Z,20.70
2023-10-21T20:51:18.693Z,20.60
2023-10-21T20:53:46.981Z,18.90
2023-10-21T20:56:20.292Z,18.00
2023-10-21T20:58:49.177Z,21.80
2023-10-21T21:01:30.322Z,22.40
2023-10-21T21:04:05.685Z,20.70
2023-10-21T21:06:34.318Z,17.70
2023-10-21T21:09:06.973Z,19.00
2023-10-21T21:11:35.461Z,19.10
2023-10-21T21:14:04.258Z,17.80
2023-10-21T21:16:36.277Z,16.60
2023-10-21T21:19:06.316Z,18.60
2023-10-21T21:21:35.263Z,19.50
2023-10-21T21:24:06.778Z,18.80
2023-10-21T21:26:36.093Z,17.20
2023-10-21T21:29:05.676Z,25.10
2023-10-21T21:31:34.189Z,18.10
2023-10-21T21:34:02.564Z,15.80
2023-10-21T21:36:33.156Z,21.10
2023-10-21T21:39:01.892Z,17.20
2023-10-21T21:41:30.262Z,19.00
2023-10-21T21:43:58.467Z,23.40
2023-10-21T21:46:26.972Z,17.10
2023-10-21T21:48:55.534Z,17.20
2023-10-21T21:51:24.112Z,18.20
2023-10-21T21:53:52.585Z,20.80
2023-10-21T21:56:20.674Z,13.10
2023-10-21T21:58:49.370Z,13.80
2023-10-21T22:01:27.788Z,16.80
2023-10-21T22:03:57.822Z,17.30
2023-10-21T22:06:27.024Z,14.20
2023-10-21T22:08:55.865Z,18.20
2023-10-21T22:11:26.401Z,14.20
2023-10-21T22:13:54.970Z,17.30
2023-10-21T22:16:24.053Z,19.10
2023-10-21T22:18:52.578Z,17.10
2023-10-21T22:21:21.357Z,18.90
2023-10-21T22:24:01.127Z,17.30
2023-10-21T22:26:31.402Z,16.70
2023-10-21T22:29:02.665Z,18.10
2023-10-21T22:31:31.505Z,16.70
2023-10-21T22:34:00.172Z,15.30
2023-10-21T22:36:28.430Z,17.80
2023-10-21T22:38:57.575Z,20.00
2023-10-21T22:41:26.843Z,16.80
2023-10-21T22:43:55.138Z,13.00
2023-10-21T22:46:23.822Z,17.60
2023-10-21T22:48:52.694Z,20.60
2023-10-21T22:51:20.820Z,16.10
2023-10-21T22:53:48.987Z,15.10
2023-10-21T22:56:17.445Z,16.20
2023-10-21T22:58:45.929Z,15.50
2023-10-21T23:01:15.007Z,12.70
2023-10-21T23:03:43.582Z,19.50
2023-10-21T23:06:12.761Z,21.40
2023-10-21T23:08:41.227Z,17.90
2023-10-21T23:11:10.472Z,20.40
2023-10-21T23:13:39.145Z,15.10
2023-10-21T23:16:07.718Z,16.00
2023-10-21T23:18:39.134Z,15.60
2023-10-21T23:21:07.969Z,16.20
2023-10-21T23:23:36.421Z,17.20
2023-10-21T23:26:04.949Z,17.10
2023-10-21T23:28:33.437Z,18.70
2023-10-21T23:31:03.115Z,20.00
2023-10-21T23:33:31.581Z,19.40
2023-10-21T23:36:04.900Z,12.20
2023-10-21T23:38:34.521Z,18.40
2023-10-21T23:41:09.117Z,21.20
2023-10-21T23:43:37.498Z,18.20
2023-10-21T23:46:09.737Z,17.30
2023-10-21T23:48:39.007Z,18.30
2023-10-21T23:51:07.670Z,21.30
2023-10-21T23:53:36.407Z,15.70
2023-10-21T23:56:04.876Z,16.00
2023-10-21T23:58:33.012Z,18.40
